Time,TemperatureF,DewpointF,PressureIn,WindDirection,WindDirectionDegrees,WindSpeedMPH,WindSpeedGustMPH,Humidity,HourlyPrecipIn,Conditions,Clouds,dailyrainin,SoftwareType,DateUTC
2013-03-27 00:00:00,61.9,24.9,29.95,WNW,292,1.6,1.6,24,0.00,,,0.00,tws,2013-03-27 07:00:00,
2013-03-27 00:10:00,61.5,25.4,29.95,NW,315,1.1,1.4,24,0.00,,,0.00,tws,2013-03-27 07:10:00,
2013-03-27 00:20:00,60.9,26.2,29.94,NW,315,0.0,0.0,26,0.00,,,0.00,tws,2013-03-27 07:20:00,
2013-03-27 00:30:00,60.3,26.1,29.94,SW,225,0.0,0.0,26,0.00,,,0.00,tws,2013-03-27 07:30:00,
2013-03-27 00:40:00,59.9,26.0,29.94,NW,315,0.0,0.0,27,0.00,,,0.00,tws,2013-03-27 07:40:00,
2013-03-27 00:50:00,59.3,26.4,29.94,SW,225,0.3,1.1,28,0.00,,,0.00,tws,2013-03-27 07:50:00,
2013-03-27 01:00:00,58.7,26.1,29.94,SW,225,1.4,1.9,28,0.00,,,0.00,tws,2013-03-27 08:00:00,
2013-03-27 01:10:00,58.2,26.2,29.93,SE,135,0.4,1.3,28,0.00,,,0.00,tws,2013-03-27 08:10:00,
2013-03-27 01:20:00,57.9,25.8,29.94,SSW,202,0.4,1.3,28,0.00,,,0.00,tws,2013-03-27 08:20:00,
2013-03-27 01:30:00,57.9,25.5,29.94,SE,135,1.8,2.6,28,0.00,,,0.00,tws,2013-03-27 08:30:00,
2013-03-27 01:40:00,58.2,25.1,29.93,North,360,2.9,3.4,27,0.00,,,0.00,tws,2013-03-27 08:40:00,
2013-03-27 01:50:00,58.9,25.5,29.92,NE,45,2.1,3.8,27,0.00,,,0.00,tws,2013-03-27 08:50:00,
2013-03-27 02:00:00,59.5,26.3,29.92,NE,45,0.9,2.1,27,0.00,,,0.00,tws,2013-03-27 09:00:00,
2013-03-27 02:10:00,59.3,26.1,29.92,South,180,0.0,0.0,27,0.00,,,0.00,tws,2013-03-27 09:10:00,
2013-03-27 02:20:00,58.7,26.0,29.92,NW,315,0.6,2.1,28,0.00,,,0.00,tws,2013-03-27 09:20:00,
2013-03-27 02:30:00,58.0,25.8,29.91,West,270,0.3,1.3,28,0.00,,,0.00,tws,2013-03-27 09:30:00,
2013-03-27 02:40:00,57.4,26.4,29.92,NW,315,0.4,1.0,30,0.00,,,0.00,tws,2013-03-27 09:40:00,
2013-03-27 02:50:00,56.9,27.0,29.91,NW,315,1.8,2.9,31,0.00,,,0.00,tws,2013-03-27 09:50:00,
2013-03-27 03:00:00,56.4,26.6,29.91,NW,315,2.7,4.2,31,0.00,,,0.00,tws,2013-03-27 10:00:00,
2013-03-27 03:10:00,55.9,26.0,29.91,NW,315,3.5,4.2,31,0.00,,,0.00,tws,2013-03-27 10:10:00,
2013-03-27 03:20:00,55.6,25.6,29.91,NW,315,0.9,3.1,31,0.00,,,0.00,tws,2013-03-27 10:20:00,
2013-03-27 03:30:00,55.4,26.0,29.91,North,0,2.5,3.8,31,0.00,,,0.00,tws,2013-03-27 10:30:00,
2013-03-27 03:40:00,55.2,26.0,29.91,NW,315,2.7,3.9,32,0.00,,,0.00,tws,2013-03-27 10:40:00,
2013-03-27 03:50:00,55.0,25.7,29.91,NW,315,4.1,5.3,31,0.00,,,0.00,tws,2013-03-27 10:50:00,
2013-03-27 04:00:00,55.1,25.7,29.91,NW,315,3.1,4.9,31,0.00,,,0.00,tws,2013-03-27 11:00:00,
2013-03-27 04:10:00,55.3,25.9,29.91,WNW,292,2.9,3.9,31,0.00,,,0.00,tws,2013-03-27 11:10:00,
2013-03-27 04:20:00,55.6,25.9,29.92,NW,315,0.6,2.6,31,0.00,,,0.00,tws,2013-03-27 11:20:00,
2013-03-27 04:30:00,55.6,26.1,29.91,NW,315,1.4,3.9,31,0.00,,,0.00,tws,2013-03-27 11:30:00,
2013-03-27 04:40:00,55.3,26.3,29.91,West,270,0.4,1.3,32,0.00,,,0.00,tws,2013-03-27 11:40:00,
2013-03-27 04:50:00,55.0,26.2,29.91,NE,45,2.0,3.9,32,0.00,,,0.00,tws,2013-03-27 11:50:00,
2013-03-27 05:00:00,54.6,26.1,29.91,NW,315,0.8,3.2,32,0.00,,,0.00,tws,2013-03-27 12:00:00,
2013-03-27 05:10:00,54.3,26.2,29.91,NW,315,1.4,2.5,33,0.00,,,0.00,tws,2013-03-27 12:10:00,
2013-03-27 05:20:00,54.1,26.4,29.92,NW,315,1.8,2.9,33,0.00,,,0.00,tws,2013-03-27 12:20:00,
2013-03-27 05:30:00,53.9,26.3,29.92,NW,315,3.0,3.8,34,0.00,,,0.00,tws,2013-03-27 12:30:00,
2013-03-27 05:40:00,53.8,26.4,29.91,West,270,2.0,3.5,34,0.00,,,0.00,tws,2013-03-27 12:40:00,
2013-03-27 05:50:00,53.7,26.6,29.92,East,90,1.4,2.8,34,0.00,,,0.00,tws,2013-03-27 12:50:00,
2013-03-27 06:00:00,53.6,26.4,29.93,NE,45,1.7,3.4,34,0.00,,,0.00,tws,2013-03-27 13:00:00,
2013-03-27 06:10:00,53.4,26.6,29.93,NW,315,1.7,2.9,35,0.00,,,0.00,tws,2013-03-27 13:10:00,
2013-03-27 06:20:00,53.1,26.4,29.93,NW,315,2.7,3.7,35,0.00,,,0.00,tws,2013-03-27 13:20:00,
2013-03-27 06:30:00,52.9,26.1,29.93,NW,315,4.8,5.8,35,0.00,,,0.00,tws,2013-03-27 13:30:00,
2013-03-27 06:40:00,52.7,26.0,29.93,NW,315,1.9,4.6,35,0.00,,,0.00,tws,2013-03-27 13:40:00,
2013-03-27 06:50:00,52.6,26.0,29.94,NW,315,2.3,3.6,35,0.00,,,0.00,tws,2013-03-27 13:50:00,
2013-03-27 07:00:00,52.7,26.8,29.94,NW,315,2.3,3.0,36,0.00,,,0.00,tws,2013-03-27 14:00:00,
2013-03-27 07:10:00,52.9,27.3,29.95,NW,315,2.1,3.2,36,0.00,,,0.00,tws,2013-03-27 14:10:00,
2013-03-27 07:20:00,53.2,28.0,29.94,NE,45,0.0,0.0,37,0.00,,,0.00,tws,2013-03-27 14:20:00,
2013-03-27 07:30:00,53.5,29.1,29.95,North,0,0.3,1.1,38,0.00,,,0.00,tws,2013-03-27 14:30:00,
2013-03-27 07:40:00,54.1,29.7,29.96,West,270,1.0,2.4,38,0.00,,,0.00,tws,2013-03-27 14:40:00,
2013-03-27 07:50:00,55.2,30.1,29.96,SE,135,1.2,2.3,37,0.00,,,0.00,tws,2013-03-27 14:50:00,
2013-03-27 08:00:00,56.6,30.4,29.96,East,90,2.2,3.3,36,0.00,,,0.00,tws,2013-03-27 15:00:00,
2013-03-27 08:10:00,58.2,30.0,29.96,East,90,2.4,3.0,33,0.00,,,0.00,tws,2013-03-27 15:10:00,
2013-03-27 08:20:00,60.0,30.2,29.98,East,90,2.7,4.4,32,0.00,,,0.00,tws,2013-03-27 15:20:00,
2013-03-27 08:30:00,62.0,31.0,29.97,NE,45,4.0,6.0,30,0.00,,,0.00,tws,2013-03-27 15:30:00,
2013-03-27 08:40:00,64.1,31.7,29.98,East,90,4.8,5.5,29,0.00,,,0.00,tws,2013-03-27 15:40:00,
2013-03-27 08:50:00,65.8,31.7,29.98,ESE,112,4.5,5.7,27,0.00,,,0.00,tws,2013-03-27 15:50:00,
2013-03-27 09:00:00,67.2,31.1,29.98,East,90,5.5,6.9,25,0.00,,,0.00,tws,2013-03-27 16:00:00,
2013-03-27 09:10:00,69.2,31.0,29.98,ESE,112,5.4,6.5,23,0.00,,,0.00,tws,2013-03-27 16:10:00,
2013-03-27 09:20:00,72.4,32.1,29.98,ENE,67,6.1,8.0,22,0.00,,,0.00,tws,2013-03-27 16:20:00,
2013-03-27 09:30:00,75.5,33.4,29.98,ESE,112,6.2,7.7,21,0.00,,,0.00,tws,2013-03-27 16:30:00,
2013-03-27 09:40:00,77.5,33.3,29.99,NE,45,6.4,8.7,19,0.00,,,0.00,tws,2013-03-27 16:40:00,
2013-03-27 09:50:00,78.5,32.5,29.99,ESE,112,6.8,8.5,18,0.00,,,0.00,tws,2013-03-27 16:50:00,
2013-03-27 10:00:00,78.8,31.7,29.99,East,90,7.3,10.8,17,0.00,,,0.00,tws,2013-03-27 17:00:00,
2013-03-27 10:10:00,78.6,31.2,30.00,East,90,7.1,10.3,17,0.00,,,0.00,tws,2013-03-27 17:10:00,
2013-03-27 10:20:00,78.9,31.0,30.00,ENE,67,8.9,10.7,17,0.00,,,0.00,tws,2013-03-27 17:20:00,
2013-03-27 10:30:00,78.8,31.1,30.00,East,90,8.6,11.8,17,0.00,,,0.00,tws,2013-03-27 17:30:00,
2013-03-27 10:40:00,78.7,30.9,30.00,East,90,8.7,11.0,17,0.00,,,0.00,tws,2013-03-27 17:40:00,
2013-03-27 10:50:00,78.3,30.7,30.00,East,90,8.5,10.5,17,0.00,,,0.00,tws,2013-03-27 17:50:00,
2013-03-27 11:00:00,78.3,30.9,30.01,SE,135,7.4,8.5,17,0.00,,,0.00,tws,2013-03-27 18:00:00,
2013-03-27 11:10:00,78.8,31.8,30.00,ESE,112,6.9,8.3,17,0.00,,,0.00,tws,2013-03-27 18:10:00,
2013-03-27 11:20:00,79.2,31.6,30.00,NE,45,7.1,8.9,17,0.00,,,0.00,tws,2013-03-27 18:20:00,
2013-03-27 11:30:00,79.5,32.1,29.99,East,90,7.6,12.2,17,0.00,,,0.00,tws,2013-03-27 18:30:00,
2013-03-27 11:40:00,79.3,31.8,29.99,NE,45,6.6,8.0,17,0.00,,,0.00,tws,2013-03-27 18:40:00,
2013-03-27 11:50:00,80.4,33.1,29.99,East,90,6.2,8.6,17,0.00,,,0.00,tws,2013-03-27 18:50:00,
2013-03-27 12:00:00,81.3,32.8,29.99,ESE,112,7.3,10.1,17,0.00,,,0.00,tws,2013-03-27 19:00:00,
2013-03-27 12:10:00,82.1,33.7,29.99,SE,135,5.8,6.7,17,0.00,,,0.00,tws,2013-03-27 19:10:00,
2013-03-27 12:20:00,82.1,33.3,29.98,East,90,6.3,10.2,16,0.00,,,0.00,tws,2013-03-27 19:20:00,
2013-03-27 12:30:00,81.1,32.5,29.98,ENE,67,5.3,7.4,16,0.00,,,0.00,tws,2013-03-27 19:30:00,
2013-03-27 12:40:00,80.8,34.2,29.97,NE,45,4.0,5.8,18,0.00,,,0.00,tws,2013-03-27 19:40:00,
2013-03-27 12:50:00,81.4,33.4,29.96,East,90,6.2,9.0,17,0.00,,,0.00,tws,2013-03-27 19:50:00,
2013-03-27 13:00:00,82.0,32.7,29.96,ESE,112,5.8,6.8,16,0.00,,,0.00,tws,2013-03-27 20:00:00,
2013-03-27 13:10:00,82.3,31.8,29.96,SE,135,8.4,12.4,15,0.00,,,0.00,tws,2013-03-27 20:10:00,
2013-03-27 13:20:00,82.4,31.3,29.96,East,90,8.8,10.4,15,0.00,,,0.00,tws,2013-03-27 20:20:00,
2013-03-27 13:30:00,82.9,32.1,29.95,NE,45,6.3,9.0,15,0.00,,,0.00,tws,2013-03-27 20:30:00,
2013-03-27 13:40:00,83.6,32.4,29.95,SE,135,6.9,9.5,15,0.00,,,0.00,tws,2013-03-27 20:40:00,
2013-03-27 13:50:00,84.1,32.3,29.95,East,90,7.2,10.0,15,0.00,,,0.00,tws,2013-03-27 20:50:00,
2013-03-27 14:00:00,84.4,32.5,29.94,SSE,157,7.4,11.9,15,0.00,,,0.00,tws,2013-03-27 21:00:00,
2013-03-27 14:10:00,84.4,31.7,29.94,SE,135,8.7,11.0,14,0.00,,,0.00,tws,2013-03-27 21:10:00,
2013-03-27 14:20:00,84.3,32.1,29.93,SSE,157,6.3,10.5,14,0.00,,,0.00,tws,2013-03-27 21:20:00,
2013-03-27 14:30:00,85.0,32.5,29.94,SE,135,7.3,11.6,14,0.00,,,0.00,tws,2013-03-27 21:30:00,
2013-03-27 14:40:00,85.2,31.6,29.94,SE,135,7.7,11.7,14,0.00,,,0.00,tws,2013-03-27 21:40:00,
2013-03-27 14:50:00,84.1,31.4,29.94,SE,135,8.1,10.3,14,0.00,,,0.00,tws,2013-03-27 21:50:00,
2013-03-27 15:00:00,83.6,31.9,29.93,ESE,112,8.8,10.6,15,0.00,,,0.00,tws,2013-03-27 22:00:00,
2013-03-27 15:10:00,84.2,32.6,29.93,ESE,112,8.1,11.0,15,0.00,,,0.00,tws,2013-03-27 22:10:00,
2013-03-27 15:20:00,84.1,31.9,29.93,East,90,7.7,10.3,14,0.00,,,0.00,tws,2013-03-27 22:20:00,
2013-03-27 15:30:00,84.0,32.5,29.93,SE,135,7.8,10.9,15,0.00,,,0.00,tws,2013-03-27 22:30:00,
2013-03-27 15:40:00,84.1,32.6,29.93,ESE,112,7.7,9.4,15,0.00,,,0.00,tws,2013-03-27 22:40:00,
2013-03-27 15:50:00,83.9,31.5,29.92,ESE,112,7.4,10.6,14,0.00,,,0.00,tws,2013-03-27 22:50:00,
2013-03-27 16:00:00,83.5,31.3,29.92,East,90,8.0,11.1,14,0.00,,,0.00,tws,2013-03-27 23:00:00,
2013-03-27 16:10:00,83.0,31.1,29.93,SE,135,7.3,9.1,15,0.00,,,0.00,tws,2013-03-27 23:10:00,
2013-03-27 16:20:00,82.3,31.6,29.93,East,90,6.2,10.0,15,0.00,,,0.00,tws,2013-03-27 23:20:00,
2013-03-27 16:30:00,82.0,32.4,29.93,SE,135,7.3,8.8,16,0.00,,,0.00,tws,2013-03-27 23:30:00,
2013-03-27 16:40:00,81.5,32.4,29.93,ESE,112,6.6,10.0,16,0.00,,,0.00,tws,2013-03-27 23:40:00,
2013-03-27 16:50:00,80.9,32.8,29.93,ESE,112,4.4,6.2,17,0.00,,,0.00,tws,2013-03-27 23:50:00,
2013-03-27 17:00:00,80.6,32.0,29.93,ESE,112,7.7,10.3,16,0.00,,,0.00,tws,2013-03-28 00:00:00,
2013-03-27 17:10:00,80.4,31.3,29.94,SE,135,6.5,8.3,16,0.00,,,0.00,tws,2013-03-28 00:10:00,
2013-03-27 17:20:00,80.3,30.3,29.94,SE,135,8.0,10.7,15,0.00,,,0.00,tws,2013-03-28 00:20:00,
2013-03-27 17:30:00,80.3,28.7,29.93,South,180,7.2,9.3,14,0.00,,,0.00,tws,2013-03-28 00:30:00,
2013-03-27 17:40:00,80.1,28.4,29.94,South,180,7.0,11.0,14,0.00,,,0.00,tws,2013-03-28 00:40:00,
2013-03-27 17:50:00,79.6,27.7,29.94,SW,225,6.3,9.3,14,0.00,,,0.00,tws,2013-03-28 00:50:00,
2013-03-27 18:00:00,79.0,27.0,29.93,SE,135,7.3,8.5,14,0.00,,,0.00,tws,2013-03-28 01:00:00,
2013-03-27 18:10:00,78.5,26.7,29.94,South,180,5.8,8.1,14,0.00,,,0.00,tws,2013-03-28 01:10:00,
2013-03-27 18:20:00,77.9,26.4,29.94,South,180,6.8,8.6,14,0.00,,,0.00,tws,2013-03-28 01:20:00,
2013-03-27 18:30:00,77.3,25.8,29.94,SSE,157,7.7,8.8,14,0.00,,,0.00,tws,2013-03-28 01:30:00,
2013-03-27 18:40:00,76.8,25.8,29.94,SW,225,6.1,8.7,14,0.00,,,0.00,tws,2013-03-28 01:40:00,
2013-03-27 18:50:00,76.2,25.3,29.93,South,180,7.0,8.1,14,0.00,,,0.00,tws,2013-03-28 01:50:00,
2013-03-27 19:00:00,75.6,24.7,29.94,SW,225,5.8,6.5,14,0.00,,,0.00,tws,2013-03-28 02:00:00,
2013-03-27 19:10:00,74.9,24.5,29.95,South,180,5.9,7.1,14,0.00,,,0.00,tws,2013-03-28 02:10:00,
2013-03-27 19:20:00,74.2,24.2,29.96,SW,225,5.1,5.8,15,0.00,,,0.00,tws,2013-03-28 02:20:00,
2013-03-27 19:30:00,73.5,23.8,29.96,SW,225,4.8,6.3,15,0.00,,,0.00,tws,2013-03-28 02:30:00,
2013-03-27 19:40:00,72.8,23.1,29.97,SSW,202,5.4,6.3,15,0.00,,,0.00,tws,2013-03-28 02:40:00,
2013-03-27 19:50:00,72.3,22.5,29.98,SW,225,4.8,5.5,15,0.00,,,0.00,tws,2013-03-28 02:50:00,
2013-03-27 20:00:00,71.9,22.2,29.97,South,180,4.7,5.8,15,0.00,,,0.00,tws,2013-03-28 03:00:00,
2013-03-27 20:10:00,71.6,21.8,29.98,SW,225,4.2,4.7,15,0.00,,,0.00,tws,2013-03-28 03:10:00,
2013-03-27 20:20:00,71.2,21.8,29.99,SW,225,3.4,4.1,15,0.00,,,0.00,tws,2013-03-28 03:20:00,
2013-03-27 20:30:00,70.8,21.7,29.99,SW,225,3.8,4.2,15,0.00,,,0.00,tws,2013-03-28 03:30:00,
2013-03-27 20:40:00,70.5,21.6,29.99,South,180,3.7,5.2,15,0.00,,,0.00,tws,2013-03-28 03:40:00,
2013-03-27 20:50:00,70.1,22.7,29.99,SW,225,2.2,2.9,16,0.00,,,0.00,tws,2013-03-28 03:50:00,
2013-03-27 21:00:00,69.4,23.0,30.00,WSW,247,2.3,3.1,17,0.00,,,0.00,tws,2013-03-28 04:00:00,
2013-03-27 21:10:00,68.7,22.7,30.01,SW,225,2.4,3.0,17,0.00,,,0.00,tws,2013-03-28 04:10:00,
2013-03-27 21:20:00,68.1,22.4,30.01,SW,225,2.6,3.3,17,0.00,,,0.00,tws,2013-03-28 04:20:00,
2013-03-27 21:30:00,67.6,24.1,30.01,NW,315,0.5,1.1,19,0.00,,,0.00,tws,2013-03-28 04:30:00,
2013-03-27 21:40:00,66.8,24.6,30.01,NW,315,1.3,2.2,19,0.00,,,0.00,tws,2013-03-28 04:40:00,
2013-03-27 21:50:00,65.9,24.8,30.02,NNW,337,1.8,2.6,20,0.00,,,0.00,tws,2013-03-28 04:50:00,
2013-03-27 22:00:00,65.1,24.4,30.02,NNE,22,1.3,2.3,21,0.00,,,0.00,tws,2013-03-28 05:00:00,
2013-03-27 22:10:00,64.4,23.9,30.03,NW,315,1.7,3.4,21,0.00,,,0.00,tws,2013-03-28 05:10:00,
2013-03-27 22:20:00,63.9,23.5,30.03,NE,45,1.4,2.0,21,0.00,,,0.00,tws,2013-03-28 05:20:00,
2013-03-27 22:30:00,63.4,23.3,30.03,NE,45,0.3,1.4,21,0.00,,,0.00,tws,2013-03-28 05:30:00,
2013-03-27 22:40:00,63.1,23.6,30.03,North,0,0.0,0.0,21,0.00,,,0.00,tws,2013-03-28 05:40:00,
2013-03-27 22:50:00,62.8,24.1,30.03,North,0,0.0,0.0,22,0.00,,,0.00,tws,2013-03-28 05:50:00,
2013-03-27 23:00:00,62.4,24.1,30.03,NW,315,0.6,1.3,22,0.00,,,0.00,tws,2013-03-28 06:00:00,
2013-03-27 23:10:00,62.0,24.5,30.03,NNW,337,0.7,1.4,23,0.00,,,0.00,tws,2013-03-28 06:10:00,
2013-03-27 23:20:00,61.5,24.8,30.03,NNW,337,1.3,1.7,24,0.00,,,0.00,tws,2013-03-28 06:20:00,
2013-03-27 23:30:00,61.1,24.7,30.03,NW,315,1.1,2.2,24,0.00,,,0.00,tws,2013-03-28 06:30:00,
2013-03-27 23:40:00,60.7,24.7,30.03,NW,315,1.9,2.8,24,0.00,,,0.00,tws,2013-03-28 06:40:00,
2013-03-27 23:50:00,60.3,24.3,30.03,SW,225,1.6,2.5,24,0.00,,,0.00,tws,2013-03-28 06:50:00,